sensor_id;sensor_type;location;lat;lon;timestamp;P1;durP1;ratioP1;P2;durP2;ratioP2
23119;SDS011;11729;50.836;4.330;2022-11-27T00:00:59;20.80;;;11.57;;
23119;SDS011;11729;50.836;4.330;2022-11-27T00:03:25;19.58;;;11.23;;
23119;SDS011;11729;50.836;4.330;2022-11-27T00:05:54;26.23;;;11.77;;
23119;SDS011;11729;50.836;4.330;2022-11-27T00:08:22;22.83;;;10.80;;
23119;SDS011;11729;50.836;4.330;2022-11-27T00:10:49;24.90;;;11.60;;
23119;SDS011;11729;50.836;4.330;2022-11-27T00:13:15;26.77;;;10.52;;
23119;SDS011;11729;50.836;4.330;2022-11-27T00:15:41;27.38;;;10.98;;
23119;SDS011;11729;50.836;4.330;2022-11-27T00:18:06;22.25;;;11.23;;
23119;SDS011;11729;50.836;4.330;2022-11-27T00:20:32;24.52;;;10.43;;
23119;SDS011;11729;50.836;4.330;2022-11-27T00:22:58;26.30;;;10.57;;
23119;SDS011;11729;50.836;4.330;2022-11-27T00:25:23;21.27;;;10.10;;
23119;SDS011;11729;50.836;4.330;2022-11-27T00:27:49;21.02;;;10.45;;
23119;SDS011;11729;50.836;4.330;2022-11-27T00:30:14;23.92;;;11.35;;
23119;SDS011;11729;50.836;4.330;2022-11-27T00:32:41;25.33;;;10.27;;
23119;SDS011;11729;50.836;4.330;2022-11-27T00:35:07;22.90;;;10.88;;
23119;SDS011;11729;50.836;4.330;2022-11-27T00:37:33;20.88;;;10.00;;
23119;SDS011;11729;50.836;4.330;2022-11-27T00:39:59;25.20;;;10.38;;
23119;SDS011;11729;50.836;4.330;2022-11-27T00:42:25;18.38;;;9.75;;
23119;SDS011;11729;50.836;4.330;2022-11-27T00:44:51;25.08;;;10.10;;
23119;SDS011;11729;50.836;4.330;2022-11-27T00:47:17;25.40;;;10.32;;
23119;SDS011;11729;50.836;4.330;2022-11-27T00:49:44;23.17;;;10.75;;
23119;SDS011;11729;50.836;4.330;2022-11-27T00:52:11;22.67;;;10.82;;
23119;SDS011;11729;50.836;4.330;2022-11-27T00:54:37;25.60;;;11.15;;
23119;SDS011;11729;50.836;4.330;2022-11-27T00:57:03;22.40;;;9.80;;
23119;SDS011;11729;50.836;4.330;2022-11-27T00:59:29;21.02;;;10.20;;
23119;SDS011;11729;50.836;4.330;2022-11-27T01:01:54;25.73;;;10.15;;
23119;SDS011;11729;50.836;4.330;2022-11-27T01:04:20;27.73;;;11.02;;
23119;SDS011;11729;50.836;4.330;2022-11-27T01:06:46;21.02;;;10.20;;
23119;SDS011;11729;50.836;4.330;2022-11-27T01:09:12;20.65;;;10.27;;
23119;SDS011;11729;50.836;4.330;2022-11-27T01:11:38;17.95;;;10.30;;
23119;SDS011;11729;50.836;4.330;2022-11-27T01:14:06;23.02;;;10.27;;
23119;SDS011;11729;50.836;4.330;2022-11-27T01:16:35;22.30;;;9.98;;
23119;SDS011;11729;50.836;4.330;2022-11-27T01:19:04;23.33;;;10.50;;
23119;SDS011;11729;50.836;4.330;2022-11-27T01:21:30;19.70;;;10.23;;
23119;SDS011;11729;50.836;4.330;2022-11-27T01:23:58;20.52;;;9.45;;
23119;SDS011;11729;50.836;4.330;2022-11-27T01:26:24;17.88;;;9.13;;
23119;SDS011;11729;50.836;4.330;2022-11-27T01:28:51;25.88;;;10.07;;
23119;SDS011;11729;50.836;4.330;2022-11-27T01:31:20;16.20;;;9.82;;
23119;SDS011;11729;50.836;4.330;2022-11-27T01:33:56;17.80;;;9.48;;
23119;SDS011;11729;50.836;4.330;2022-11-27T01:36:26;20.08;;;9.40;;
23119;SDS011;11729;50.836;4.330;2022-11-27T01:38:52;20.23;;;9.35;;
23119;SDS011;11729;50.836;4.330;2022-11-27T01:41:22;15.48;;;9.02;;
23119;SDS011;11729;50.836;4.330;2022-11-27T01:44:00;18.38;;;8.68;;
23119;SDS011;11729;50.836;4.330;2022-11-27T01:46:45;16.45;;;8.50;;
23119;SDS011;11729;50.836;4.330;2022-11-27T01:54:31;15.40;;;8.98;;
23119;SDS011;11729;50.836;4.330;2022-11-27T01:57:04;15.82;;;8.25;;
23119;SDS011;11729;50.836;4.330;2022-11-27T01:59:33;15.57;;;8.32;;
23119;SDS011;11729;50.836;4.330;2022-11-27T02:02:00;19.60;;;9.30;;
23119;SDS011;11729;50.836;4.330;2022-11-27T02:04:26;12.88;;;8.60;;
23119;SDS011;11729;50.836;4.330;2022-11-27T02:06:53;15.32;;;7.90;;
23119;SDS011;11729;50.836;4.330;2022-11-27T02:09:21;16.92;;;8.43;;
23119;SDS011;11729;50.836;4.330;2022-11-27T02:14:32;15.38;;;8.70;;
23119;SDS011;11729;50.836;4.330;2022-11-27T02:17:35;17.73;;;8.55;;
23119;SDS011;11729;50.836;4.330;2022-11-27T02:34:24;15.38;;;8.30;;
23119;SDS011;11729;50.836;4.330;2022-11-27T02:37:04;13.73;;;8.68;;
23119;SDS011;11729;50.836;4.330;2022-11-27T02:39:43;15.32;;;8.68;;
23119;SDS011;11729;50.836;4.330;2022-11-27T02:42:21;14.95;;;8.02;;
23119;SDS011;11729;50.836;4.330;2022-11-27T02:44:52;11.02;;;7.60;;
23119;SDS011;11729;50.836;4.330;2022-11-27T02:49:53;13.60;;;7.55;;
23119;SDS011;11729;50.836;4.330;2022-11-27T02:52:21;15.02;;;8.20;;
23119;SDS011;11729;50.836;4.330;2022-11-27T02:57:15;10.35;;;7.50;;
23119;SDS011;11729;50.836;4.330;2022-11-27T02:59:42;12.35;;;7.65;;
23119;SDS011;11729;50.836;4.330;2022-11-27T03:02:13;12.38;;;7.95;;
23119;SDS011;11729;50.836;4.330;2022-11-27T03:04:46;13.43;;;7.38;;
23119;SDS011;11729;50.836;4.330;2022-11-27T03:07:25;13.18;;;7.68;;
23119;SDS011;11729;50.836;4.330;2022-11-27T03:10:08;10.82;;;7.65;;
23119;SDS011;11729;50.836;4.330;2022-11-27T03:12:48;18.15;;;7.95;;
23119;SDS011;11729;50.836;4.330;2022-11-27T03:15:15;11.88;;;8.00;;
23119;SDS011;11729;50.836;4.330;2022-11-27T03:17:52;10.60;;;7.55;;
23119;SDS011;11729;50.836;4.330;2022-11-27T03:22:53;13.20;;;7.60;;
23119;SDS011;11729;50.836;4.330;2022-11-27T03:25:20;11.93;;;7.65;;
23119;SDS011;11729;50.836;4.330;2022-11-27T03:27:52;14.55;;;7.50;;
23119;SDS011;11729;50.836;4.330;2022-11-27T03:30:21;10.10;;;7.32;;
23119;SDS011;11729;50.836;4.330;2022-11-27T03:32:46;10.07;;;7.22;;
23119;SDS011;11729;50.836;4.330;2022-11-27T03:35:13;8.82;;;7.60;;
23119;SDS011;11729;50.836;4.330;2022-11-27T03:37:42;9.20;;;7.50;;
23119;SDS011;11729;50.836;4.330;2022-11-27T03:40:08;11.43;;;7.57;;
23119;SDS011;11729;50.836;4.330;2022-11-27T03:51:02;12.30;;;7.63;;
23119;SDS011;11729;50.836;4.330;2022-11-27T03:58:58;10.15;;;7.85;;
23119;SDS011;11729;50.836;4.330;2022-11-27T04:01:33;11.45;;;7.60;;
23119;SDS011;11729;50.836;4.330;2022-11-27T04:03:58;12.40;;;7.43;;
23119;SDS011;11729;50.836;4.330;2022-11-27T04:06:24;9.85;;;7.28;;
23119;SDS011;11729;50.836;4.330;2022-11-27T04:08:50;9.95;;;7.65;;
23119;SDS011;11729;50.836;4.330;2022-11-27T04:11:16;12.02;;;7.70;;
23119;SDS011;11729;50.836;4.330;2022-11-27T04:13:42;10.15;;;7.35;;
23119;SDS011;11729;50.836;4.330;2022-11-27T04:16:07;14.43;;;7.45;;
23119;SDS011;11729;50.836;4.330;2022-11-27T04:18:33;12.23;;;7.28;;
23119;SDS011;11729;50.836;4.330;2022-11-27T04:20:59;10.20;;;7.82;;
23119;SDS011;11729;50.836;4.330;2022-11-27T04:23:24;11.10;;;7.65;;
23119;SDS011;11729;50.836;4.330;2022-11-27T04:25:50;10.02;;;6.82;;
23119;SDS011;11729;50.836;4.330;2022-11-27T04:28:16;11.50;;;7.57;;
23119;SDS011;11729;50.836;4.330;2022-11-27T04:30:42;10.73;;;7.78;;
23119;SDS011;11729;50.836;4.330;2022-11-27T04:33:08;11.25;;;7.60;;
23119;SDS011;11729;50.836;4.330;2022-11-27T04:35:35;14.13;;;7.70;;
23119;SDS011;11729;50.836;4.330;2022-11-27T04:38:00;11.30;;;7.63;;
23119;SDS011;11729;50.836;4.330;2022-11-27T04:40:26;10.52;;;7.82;;
23119;SDS011;11729;50.836;4.330;2022-11-27T04:42:53;11.07;;;7.80;;
23119;SDS011;11729;50.836;4.330;2022-11-27T04:45:18;10.05;;;7.50;;
23119;SDS011;11729;50.836;4.330;2022-11-27T04:47:44;14.15;;;7.90;;
23119;SDS011;11729;50.836;4.330;2022-11-27T04:50:09;18.20;;;8.70;;
23119;SDS011;11729;50.836;4.330;2022-11-27T04:52:35;15.07;;;7.55;;
23119;SDS011;11729;50.836;4.330;2022-11-27T04:55:02;10.23;;;7.70;;
23119;SDS011;11729;50.836;4.330;2022-11-27T04:57:28;13.30;;;8.65;;
23119;SDS011;11729;50.836;4.330;2022-11-27T04:59:53;10.27;;;7.80;;
23119;SDS011;11729;50.836;4.330;2022-11-27T05:02:19;12.40;;;7.88;;
23119;SDS011;11729;50.836;4.330;2022-11-27T05:04:47;16.48;;;8.50;;
23119;SDS011;11729;50.836;4.330;2022-11-27T05:07:13;13.50;;;8.80;;
23119;SDS011;11729;50.836;4.330;2022-11-27T05:09:38;12.38;;;8.82;;
23119;SDS011;11729;50.836;4.330;2022-11-27T05:12:05;12.10;;;8.07;;
23119;SDS011;11729;50.836;4.330;2022-11-27T05:14:31;12.68;;;8.68;;
23119;SDS011;11729;50.836;4.330;2022-11-27T05:16:57;12.95;;;8.40;;
23119;SDS011;11729;50.836;4.330;2022-11-27T05:19:24;12.63;;;8.95;;
23119;SDS011;11729;50.836;4.330;2022-11-27T05:21:51;12.63;;;8.68;;
23119;SDS011;11729;50.836;4.330;2022-11-27T05:24:19;11.90;;;8.38;;
23119;SDS011;11729;50.836;4.330;2022-11-27T05:26:47;11.75;;;8.18;;
23119;SDS011;11729;50.836;4.330;2022-11-27T05:29:13;13.02;;;8.95;;
23119;SDS011;11729;50.836;4.330;2022-11-27T05:31:40;15.10;;;8.55;;
23119;SDS011;11729;50.836;4.330;2022-11-27T05:34:06;12.07;;;8.68;;
23119;SDS011;11729;50.836;4.330;2022-11-27T05:36:32;13.85;;;9.18;;
23119;SDS011;11729;50.836;4.330;2022-11-27T05:38:59;10.75;;;8.32;;
23119;SDS011;11729;50.836;4.330;2022-11-27T05:41:25;16.35;;;9.30;;
23119;SDS011;11729;50.836;4.330;2022-11-27T05:43:51;12.63;;;8.32;;
23119;SDS011;11729;50.836;4.330;2022-11-27T05:46:18;17.98;;;9.15;;
23119;SDS011;11729;50.836;4.330;2022-11-27T05:48:45;12.13;;;9.05;;
23119;SDS011;11729;50.836;4.330;2022-11-27T05:51:11;15.77;;;9.60;;
23119;SDS011;11729;50.836;4.330;2022-11-27T05:53:37;15.88;;;9.23;;
23119;SDS011;11729;50.836;4.330;2022-11-27T05:56:06;14.98;;;9.50;;
23119;SDS011;11729;50.836;4.330;2022-11-27T05:58:38;13.30;;;8.93;;
23119;SDS011;11729;50.836;4.330;2022-11-27T06:01:04;16.10;;;10.00;;
23119;SDS011;11729;50.836;4.330;2022-11-27T06:03:31;17.00;;;9.60;;
23119;SDS011;11729;50.836;4.330;2022-11-27T06:05:57;13.40;;;9.32;;
23119;SDS011;11729;50.836;4.330;2022-11-27T06:08:24;12.57;;;9.30;;
23119;SDS011;11729;50.836;4.330;2022-11-27T06:10:49;16.17;;;9.13;;
23119;SDS011;11729;50.836;4.330;2022-11-27T06:13:15;13.20;;;9.25;;
23119;SDS011;11729;50.836;4.330;2022-11-27T06:15:41;13.75;;;10.00;;
23119;SDS011;11729;50.836;4.330;2022-11-27T06:18:07;16.42;;;9.57;;
23119;SDS011;11729;50.836;4.330;2022-11-27T06:20:34;18.83;;;10.23;;
23119;SDS011;11729;50.836;4.330;2022-11-27T06:22:59;14.05;;;9.30;;
23119;SDS011;11729;50.836;4.330;2022-11-27T06:25:25;14.30;;;9.30;;
23119;SDS011;11729;50.836;4.330;2022-11-27T06:27:51;16.25;;;9.82;;
23119;SDS011;11729;50.836;4.330;2022-11-27T06:30:17;14.32;;;9.57;;
23119;SDS011;11729;50.836;4.330;2022-11-27T06:32:43;16.50;;;9.55;;
23119;SDS011;11729;50.836;4.330;2022-11-27T06:35:08;14.32;;;9.50;;
23119;SDS011;11729;50.836;4.330;2022-11-27T06:37:35;14.52;;;10.15;;
23119;SDS011;11729;50.836;4.330;2022-11-27T06:40:01;16.15;;;9.77;;
23119;SDS011;11729;50.836;4.330;2022-11-27T06:42:28;12.32;;;9.15;;
23119;SDS011;11729;50.836;4.330;2022-11-27T06:44:54;14.55;;;9.88;;
23119;SDS011;11729;50.836;4.330;2022-11-27T06:47:20;13.75;;;9.27;;
23119;SDS011;11729;50.836;4.330;2022-11-27T06:49:45;13.32;;;8.98;;
23119;SDS011;11729;50.836;4.330;2022-11-27T06:52:11;13.75;;;9.07;;
23119;SDS011;11729;50.836;4.330;2022-11-27T06:54:37;14.93;;;9.18;;
23119;SDS011;11729;50.836;4.330;2022-11-27T06:57:02;14.95;;;9.15;;
23119;SDS011;11729;50.836;4.330;2022-11-27T06:59:28;14.23;;;9.40;;
23119;SDS011;11729;50.836;4.330;2022-11-27T07:01:54;12.57;;;9.02;;
23119;SDS011;11729;50.836;4.330;2022-11-27T07:04:19;14.13;;;9.23;;
23119;SDS011;11729;50.836;4.330;2022-11-27T07:06:45;14.40;;;9.18;;
23119;SDS011;11729;50.836;4.330;2022-11-27T07:09:12;14.48;;;9.35;;
23119;SDS011;11729;50.836;4.330;2022-11-27T07:11:38;12.73;;;9.60;;
23119;SDS011;11729;50.836;4.330;2022-11-27T07:14:04;14.50;;;8.77;;
23119;SDS011;11729;50.836;4.330;2022-11-27T07:16:31;14.60;;;9.30;;
23119;SDS011;11729;50.836;4.330;2022-11-27T07:19:00;14.43;;;9.40;;
23119;SDS011;11729;50.836;4.330;2022-11-27T07:21:28;12.07;;;9.07;;
23119;SDS011;11729;50.836;4.330;2022-11-27T07:23:54;18.80;;;9.93;;
23119;SDS011;11729;50.836;4.330;2022-11-27T07:26:24;25.33;;;14.05;;
23119;SDS011;11729;50.836;4.330;2022-11-27T07:28:52;14.30;;;9.35;;
23119;SDS011;11729;50.836;4.330;2022-11-27T07:31:19;14.60;;;9.38;;
23119;SDS011;11729;50.836;4.330;2022-11-27T07:33:48;11.85;;;8.68;;
23119;SDS011;11729;50.836;4.330;2022-11-27T07:36:17;17.00;;;9.30;;
23119;SDS011;11729;50.836;4.330;2022-11-27T07:38:54;15.60;;;9.30;;
23119;SDS011;11729;50.836;4.330;2022-11-27T07:41:19;15.57;;;9.35;;
23119;SDS011;11729;50.836;4.330;2022-11-27T07:43:45;16.50;;;9.45;;
23119;SDS011;11729;50.836;4.330;2022-11-27T07:46:15;15.93;;;9.57;;
23119;SDS011;11729;50.836;4.330;2022-11-27T07:48:42;12.98;;;9.00;;
23119;SDS011;11729;50.836;4.330;2022-11-27T07:51:09;17.80;;;9.57;;
23119;SDS011;11729;50.836;4.330;2022-11-27T07:53:37;14.10;;;9.82;;
23119;SDS011;11729;50.836;4.330;2022-11-27T07:58:31;15.80;;;9.77;;
23119;SDS011;11729;50.836;4.330;2022-11-27T08:00:57;16.95;;;9.25;;
23119;SDS011;11729;50.836;4.330;2022-11-27T08:03:23;13.25;;;9.18;;
23119;SDS011;11729;50.836;4.330;2022-11-27T08:05:48;14.18;;;9.30;;
23119;SDS011;11729;50.836;4.330;2022-11-27T08:08:14;15.57;;;10.10;;
23119;SDS011;11729;50.836;4.330;2022-11-27T08:10:40;13.38;;;9.73;;
23119;SDS011;11729;50.836;4.330;2022-11-27T08:13:06;13.75;;;9.57;;
23119;SDS011;11729;50.836;4.330;2022-11-27T08:15:32;14.60;;;9.85;;
23119;SDS011;11729;50.836;4.330;2022-11-27T08:17:57;16.67;;;9.70;;
23119;SDS011;11729;50.836;4.330;2022-11-27T08:20:23;13.25;;;9.88;;
23119;SDS011;11729;50.836;4.330;2022-11-27T08:22:49;12.50;;;9.68;;
23119;SDS011;11729;50.836;4.330;2022-11-27T08:25:15;15.82;;;9.95;;
23119;SDS011;11729;50.836;4.330;2022-11-27T08:27:41;11.82;;;9.18;;
23119;SDS011;11729;50.836;4.330;2022-11-27T08:30:06;13.55;;;9.32;;
23119;SDS011;11729;50.836;4.330;2022-11-27T08:32:33;16.40;;;9.30;;
23119;SDS011;11729;50.836;4.330;2022-11-27T08:34:58;12.05;;;9.23;;
23119;SDS011;11729;50.836;4.330;2022-11-27T08:37:24;12.80;;;9.80;;
23119;SDS011;11729;50.836;4.330;2022-11-27T08:39:49;15.68;;;9.23;;
23119;SDS011;11729;50.836;4.330;2022-11-27T08:42:15;12.45;;;9.18;;
23119;SDS011;11729;50.836;4.330;2022-11-27T08:44:41;20.00;;;12.15;;
23119;SDS011;11729;50.836;4.330;2022-11-27T08:47:06;13.15;;;9.27;;
23119;SDS011;11729;50.836;4.330;2022-11-27T08:49:32;17.77;;;9.85;;
23119;SDS011;11729;50.836;4.330;2022-11-27T08:51:57;16.73;;;10.15;;
23119;SDS011;11729;50.836;4.330;2022-11-27T08:54:23;12.45;;;9.63;;
23119;SDS011;11729;50.836;4.330;2022-11-27T08:56:52;11.40;;;9.45;;
23119;SDS011;11729;50.836;4.330;2022-11-27T09:01:44;14.40;;;9.68;;
23119;SDS011;11729;50.836;4.330;2022-11-27T09:04:10;15.63;;;9.30;;
23119;SDS011;11729;50.836;4.330;2022-11-27T09:06:39;13.93;;;9.57;;
23119;SDS011;11729;50.836;4.330;2022-11-27T09:11:32;13.82;;;9.60;;
23119;SDS011;11729;50.836;4.330;2022-11-27T09:13:59;13.15;;;9.60;;
23119;SDS011;11729;50.836;4.330;2022-11-27T09:16:27;14.88;;;9.70;;
23119;SDS011;11729;50.836;4.330;2022-11-27T09:18:54;14.98;;;10.30;;
23119;SDS011;11729;50.836;4.330;2022-11-27T09:21:21;12.10;;;9.98;;
23119;SDS011;11729;50.836;4.330;2022-11-27T09:23:51;14.20;;;10.27;;
23119;SDS011;11729;50.836;4.330;2022-11-27T09:26:18;17.83;;;9.95;;
23119;SDS011;11729;50.836;4.330;2022-11-27T09:28:44;17.15;;;11.43;;
23119;SDS011;11729;50.836;4.330;2022-11-27T09:31:11;17.30;;;10.45;;
23119;SDS011;11729;50.836;4.330;2022-11-27T09:33:39;14.82;;;11.23;;
23119;SDS011;11729;50.836;4.330;2022-11-27T09:36:06;19.02;;;9.93;;
23119;SDS011;11729;50.836;4.330;2022-11-27T09:41:02;14.80;;;10.55;;
23119;SDS011;11729;50.836;4.330;2022-11-27T09:43:39;12.20;;;10.00;;
23119;SDS011;11729;50.836;4.330;2022-11-27T09:46:14;13.80;;;10.20;;
23119;SDS011;11729;50.836;4.330;2022-11-27T09:48:48;14.02;;;10.43;;
23119;SDS011;11729;50.836;4.330;2022-11-27T09:51:22;15.07;;;10.00;;
23119;SDS011;11729;50.836;4.330;2022-11-27T09:54:07;14.90;;;10.48;;
23119;SDS011;11729;50.836;4.330;2022-11-27T09:59:16;16.70;;;10.80;;
23119;SDS011;11729;50.836;4.330;2022-11-27T10:01:43;14.15;;;10.07;;
23119;SDS011;11729;50.836;4.330;2022-11-27T10:04:10;19.67;;;11.57;;
23119;SDS011;11729;50.836;4.330;2022-11-27T10:06:46;17.38;;;11.45;;
23119;SDS011;11729;50.836;4.330;2022-11-27T10:12:15;18.20;;;11.20;;
23119;SDS011;11729;50.836;4.330;2022-11-27T10:18:02;20.38;;;11.32;;
23119;SDS011;11729;50.836;4.330;2022-11-27T10:25:39;24.30;;;13.48;;
23119;SDS011;11729;50.836;4.330;2022-11-27T10:31:02;22.80;;;14.88;;
23119;SDS011;11729;50.836;4.330;2022-11-27T10:33:44;22.80;;;13.43;;
23119;SDS011;11729;50.836;4.330;2022-11-27T10:36:17;17.80;;;11.95;;
23119;SDS011;11729;50.836;4.330;2022-11-27T10:38:48;17.70;;;11.90;;
23119;SDS011;11729;50.836;4.330;2022-11-27T10:41:20;17.45;;;12.25;;
23119;SDS011;11729;50.836;4.330;2022-11-27T10:43:54;16.42;;;11.75;;
23119;SDS011;11729;50.836;4.330;2022-11-27T10:46:31;20.83;;;13.05;;
23119;SDS011;11729;50.836;4.330;2022-11-27T10:49:01;18.88;;;12.25;;
23119;SDS011;11729;50.836;4.330;2022-11-27T10:51:30;17.52;;;11.52;;
23119;SDS011;11729;50.836;4.330;2022-11-27T10:53:58;20.48;;;11.68;;
23119;SDS011;11729;50.836;4.330;2022-11-27T10:59:12;17.30;;;12.35;;
23119;SDS011;11729;50.836;4.330;2022-11-27T11:01:48;22.05;;;12.80;;
23119;SDS011;11729;50.836;4.330;2022-11-27T11:04:18;17.98;;;12.15;;
23119;SDS011;11729;50.836;4.330;2022-11-27T11:06:47;15.45;;;12.02;;
23119;SDS011;11729;50.836;4.330;2022-11-27T11:11:46;18.60;;;12.98;;
23119;SDS011;11729;50.836;4.330;2022-11-27T11:14:24;17.17;;;12.23;;
23119;SDS011;11729;50.836;4.330;2022-11-27T11:16:52;17.98;;;12.27;;
23119;SDS011;11729;50.836;4.330;2022-11-27T11:21:47;14.93;;;11.60;;
23119;SDS011;11729;50.836;4.330;2022-11-27T11:24:13;16.23;;;11.35;;
23119;SDS011;11729;50.836;4.330;2022-11-27T11:26:55;18.60;;;11.68;;
23119;SDS011;11729;50.836;4.330;2022-11-27T11:29:36;14.55;;;11.63;;
23119;SDS011;11729;50.836;4.330;2022-11-27T11:34:40;14.30;;;11.43;;
23119;SDS011;11729;50.836;4.330;2022-11-27T11:37:27;14.52;;;11.18;;
23119;SDS011;11729;50.836;4.330;2022-11-27T11:40:00;15.20;;;11.27;;
23119;SDS011;11729;50.836;4.330;2022-11-27T11:42:54;16.40;;;11.48;;
23119;SDS011;11729;50.836;4.330;2022-11-27T11:45:30;17.58;;;11.20;;
23119;SDS011;11729;50.836;4.330;2022-11-27T11:47:57;18.63;;;11.25;;
23119;SDS011;11729;50.836;4.330;2022-11-27T11:53:01;16.58;;;11.10;;
23119;SDS011;11729;50.836;4.330;2022-11-27T11:55:47;13.40;;;11.02;;
23119;SDS011;11729;50.836;4.330;2022-11-27T12:17:57;21.52;;;10.52;;
23119;SDS011;11729;50.836;4.330;2022-11-27T12:26:14;15.00;;;11.05;;
23119;SDS011;11729;50.836;4.330;2022-11-27T12:51:00;11.75;;;9.73;;
23119;SDS011;11729;50.836;4.330;2022-11-27T12:59:07;13.25;;;9.55;;
23119;SDS011;11729;50.836;4.330;2022-11-27T13:01:35;10.55;;;9.20;;
23119;SDS011;11729;50.836;4.330;2022-11-27T13:04:18;10.80;;;9.68;;
23119;SDS011;11729;50.836;4.330;2022-11-27T13:06:57;18.40;;;10.18;;
23119;SDS011;11729;50.836;4.330;2022-11-27T13:12:27;11.48;;;9.68;;
23119;SDS011;11729;50.836;4.330;2022-11-27T13:15:03;12.82;;;9.65;;
23119;SDS011;11729;50.836;4.330;2022-11-27T13:17:41;10.50;;;8.90;;
23119;SDS011;11729;50.836;4.330;2022-11-27T13:20:16;11.38;;;9.88;;
23119;SDS011;11729;50.836;4.330;2022-11-27T13:22:45;13.68;;;10.25;;
23119;SDS011;11729;50.836;4.330;2022-11-27T13:25:13;14.68;;;9.95;;
23119;SDS011;11729;50.836;4.330;2022-11-27T13:27:41;19.48;;;12.88;;
23119;SDS011;11729;50.836;4.330;2022-11-27T13:30:17;18.40;;;13.18;;
23119;SDS011;11729;50.836;4.330;2022-11-27T13:32:50;11.48;;;9.63;;
23119;SDS011;11729;50.836;4.330;2022-11-27T13:35:28;14.73;;;9.88;;
23119;SDS011;11729;50.836;4.330;2022-11-27T13:38:06;12.82;;;9.35;;
23119;SDS011;11729;50.836;4.330;2022-11-27T13:40:57;10.40;;;9.23;;
23119;SDS011;11729;50.836;4.330;2022-11-27T13:43:26;11.15;;;9.80;;
23119;SDS011;11729;50.836;4.330;2022-11-27T13:46:06;12.35;;;9.60;;
23119;SDS011;11729;50.836;4.330;2022-11-27T13:48:36;12.57;;;9.13;;
23119;SDS011;11729;50.836;4.330;2022-11-27T13:51:04;11.95;;;9.60;;
23119;SDS011;11729;50.836;4.330;2022-11-27T13:53:33;10.50;;;8.82;;
23119;SDS011;11729;50.836;4.330;2022-11-27T13:56:02;12.00;;;9.20;;
23119;SDS011;11729;50.836;4.330;2022-11-27T14:01:12;22.95;;;15.65;;
23119;SDS011;11729;50.836;4.330;2022-11-27T14:03:46;16.45;;;12.05;;
23119;SDS011;11729;50.836;4.330;2022-11-27T14:08:56;10.27;;;8.45;;
23119;SDS011;11729;50.836;4.330;2022-11-27T14:11:35;12.00;;;8.70;;
23119;SDS011;11729;50.836;4.330;2022-11-27T14:14:19;9.13;;;8.20;;
23119;SDS011;11729;50.836;4.330;2022-11-27T14:16:55;10.10;;;8.40;;
23119;SDS011;11729;50.836;4.330;2022-11-27T14:19:30;9.90;;;8.93;;
23119;SDS011;11729;50.836;4.330;2022-11-27T14:21:58;10.05;;;8.75;;
23119;SDS011;11729;50.836;4.330;2022-11-27T14:26:53;13.05;;;9.15;;
23119;SDS011;11729;50.836;4.330;2022-11-27T14:29:19;9.68;;;8.23;;
23119;SDS011;11729;50.836;4.330;2022-11-27T14:31:54;9.32;;;8.50;;
23119;SDS011;11729;50.836;4.330;2022-11-27T14:34:28;9.98;;;8.93;;
23119;SDS011;11729;50.836;4.330;2022-11-27T14:36:57;10.15;;;8.30;;
23119;SDS011;11729;50.836;4.330;2022-11-27T14:39:27;9.95;;;8.73;;
23119;SDS011;11729;50.836;4.330;2022-11-27T14:42:04;11.05;;;8.75;;
23119;SDS011;11729;50.836;4.330;2022-11-27T14:44:34;11.17;;;9.73;;
23119;SDS011;11729;50.836;4.330;2022-11-27T14:47:01;9.32;;;8.43;;
23119;SDS011;11729;50.836;4.330;2022-11-27T14:49:30;9.25;;;8.30;;
23119;SDS011;11729;50.836;4.330;2022-11-27T14:52:07;11.10;;;8.98;;
23119;SDS011;11729;50.836;4.330;2022-11-27T14:54:38;9.88;;;8.95;;
23119;SDS011;11729;50.836;4.330;2022-11-27T14:57:06;12.23;;;9.02;;
23119;SDS011;11729;50.836;4.330;2022-11-27T14:59:48;14.43;;;9.20;;
23119;SDS011;11729;50.836;4.330;2022-11-27T15:02:45;11.48;;;8.80;;
23119;SDS011;11729;50.836;4.330;2022-11-27T15:05:16;11.43;;;8.85;;
23119;SDS011;11729;50.836;4.330;2022-11-27T15:07:43;12.52;;;10.60;;
23119;SDS011;11729;50.836;4.330;2022-11-27T15:10:20;18.55;;;12.07;;
23119;SDS011;11729;50.836;4.330;2022-11-27T15:12:53;14.18;;;11.10;;
23119;SDS011;11729;50.836;4.330;2022-11-27T15:15:20;12.18;;;9.30;;
23119;SDS011;11729;50.836;4.330;2022-11-27T15:17:50;12.30;;;9.20;;
23119;SDS011;11729;50.836;4.330;2022-11-27T15:20:27;12.63;;;9.50;;
23119;SDS011;11729;50.836;4.330;2022-11-27T15:22:58;9.65;;;8.63;;
23119;SDS011;11729;50.836;4.330;2022-11-27T15:28:02;10.43;;;8.88;;
23119;SDS011;11729;50.836;4.330;2022-11-27T15:30:45;11.68;;;9.30;;
23119;SDS011;11729;50.836;4.330;2022-11-27T15:36:18;11.20;;;9.35;;
23119;SDS011;11729;50.836;4.330;2022-11-27T15:38:45;13.65;;;9.00;;
23119;SDS011;11729;50.836;4.330;2022-11-27T15:41:19;10.73;;;8.80;;
23119;SDS011;11729;50.836;4.330;2022-11-27T15:46:22;10.85;;;8.57;;
23119;SDS011;11729;50.836;4.330;2022-11-27T15:48:56;10.02;;;9.02;;
23119;SDS011;11729;50.836;4.330;2022-11-27T15:51:21;13.37;;;8.57;;
23119;SDS011;11729;50.836;4.330;2022-11-27T15:53:47;12.68;;;8.73;;
23119;SDS011;11729;50.836;4.330;2022-11-27T15:56:13;11.80;;;9.43;;
23119;SDS011;11729;50.836;4.330;2022-11-27T15:58:41;10.93;;;8.90;;
23119;SDS011;11729;50.836;4.330;2022-11-27T16:01:08;12.90;;;9.50;;
23119;SDS011;11729;50.836;4.330;2022-11-27T16:03:35;12.65;;;10.52;;
23119;SDS011;11729;50.836;4.330;2022-11-27T16:06:01;12.68;;;9.05;;
23119;SDS011;11729;50.836;4.330;2022-11-27T16:08:30;13.13;;;9.70;;
23119;SDS011;11729;50.836;4.330;2022-11-27T16:11:00;10.95;;;9.70;;
23119;SDS011;11729;50.836;4.330;2022-11-27T16:13:28;11.52;;;9.40;;
23119;SDS011;11729;50.836;4.330;2022-11-27T16:15:54;10.52;;;9.05;;
23119;SDS011;11729;50.836;4.330;2022-11-27T16:18:24;10.02;;;7.95;;
23119;SDS011;11729;50.836;4.330;2022-11-27T16:20:51;10.20;;;8.55;;
23119;SDS011;11729;50.836;4.330;2022-11-27T16:23:16;10.50;;;9.05;;
23119;SDS011;11729;50.836;4.330;2022-11-27T16:25:42;10.85;;;9.32;;
23119;SDS011;11729;50.836;4.330;2022-11-27T16:28:07;17.35;;;9.63;;
23119;SDS011;11729;50.836;4.330;2022-11-27T16:30:33;9.85;;;8.90;;
23119;SDS011;11729;50.836;4.330;2022-11-27T16:32:59;12.10;;;9.73;;
23119;SDS011;11729;50.836;4.330;2022-11-27T16:35:24;10.80;;;9.23;;
23119;SDS011;11729;50.836;4.330;2022-11-27T16:37:50;13.48;;;9.57;;
23119;SDS011;11729;50.836;4.330;2022-11-27T16:40:15;12.88;;;9.85;;
23119;SDS011;11729;50.836;4.330;2022-11-27T16:42:41;12.20;;;10.43;;
23119;SDS011;11729;50.836;4.330;2022-11-27T16:45:07;11.30;;;10.10;;
23119;SDS011;11729;50.836;4.330;2022-11-27T16:47:32;10.50;;;9.48;;
23119;SDS011;11729;50.836;4.330;2022-11-27T16:49:58;10.95;;;9.63;;
23119;SDS011;11729;50.836;4.330;2022-11-27T16:52:24;24.52;;;15.70;;
23119;SDS011;11729;50.836;4.330;2022-11-27T16:54:49;12.57;;;10.77;;
23119;SDS011;11729;50.836;4.330;2022-11-27T16:57:17;14.60;;;10.38;;
23119;SDS011;11729;50.836;4.330;2022-11-27T16:59:44;12.07;;;10.13;;
23119;SDS011;11729;50.836;4.330;2022-11-27T17:02:09;10.55;;;9.48;;
23119;SDS011;11729;50.836;4.330;2022-11-27T17:04:35;12.82;;;10.20;;
23119;SDS011;11729;50.836;4.330;2022-11-27T17:07:01;14.55;;;9.85;;
23119;SDS011;11729;50.836;4.330;2022-11-27T17:09:26;11.93;;;10.00;;
23119;SDS011;11729;50.836;4.330;2022-11-27T17:11:53;12.05;;;10.27;;
23119;SDS011;11729;50.836;4.330;2022-11-27T17:14:19;12.88;;;10.20;;
23119;SDS011;11729;50.836;4.330;2022-11-27T17:16:45;13.63;;;10.75;;